< < Back
Terminal Aerodrome Forecast


Current Version              Previous Versions:   1  2  3  4  5  6  7  8  9  

Terminal Aerodrome Forecast

939
FTUS42 KCHS 240520
TAFCHS
TAF
KCHS 240520Z 2406/2506 33010KT P6SM SCT250
     FM240900 02012G18KT P6SM BKN250
     FM241700 05009KT P6SM SCT250
     FM242100 15008KT P6SM SCT250
     FM250000 VRB03KT P6SM SCT150 BKN250=



Latest METAR

708
SAUS80 KWBC 250600 RRC
MTRCHS
METAR KCHS 250556Z 00000KT 10SM SCT200 14/10 A2997 RMK AO2 SLP148
T01440100 10161 20128 58014


USA.gov is the U.S. government's official web portal to all federal, state and local government web resources and services.